sensor_id;sensor_type;location;lat;lon;timestamp;pressure;altitude;pressure_sealevel;temperature;humidity
7888;BME280;3989;48.810;9.208;2023-08-31T00:01:38;98082.00;;;12.13;100.00
7888;BME280;3989;48.810;9.208;2023-08-31T00:07:00;98117.44;;;12.28;100.00
7888;BME280;3989;48.810;9.208;2023-08-31T00:32:36;98044.69;;;11.45;100.00
7888;BME280;3989;48.810;9.208;2023-08-31T00:35:19;98076.94;;;11.50;100.00
7888;BME280;3989;48.810;9.208;2023-08-31T00:37:52;98100.91;;;11.72;100.00
7888;BME280;3989;48.810;9.208;2023-08-31T01:04:14;98227.78;;;12.82;100.00
7888;BME280;3989;48.810;9.208;2023-08-31T01:06:55;98095.59;;;11.91;100.00
7888;BME280;3989;48.810;9.208;2023-08-31T01:09:45;98145.19;;;12.07;100.00
7888;BME280;3989;48.810;9.208;2023-08-31T01:13:00;98098.97;;;11.52;100.00
7888;BME280;3989;48.810;9.208;2023-08-31T01:15:45;98064.91;;;11.14;100.00
7888;BME280;3989;48.810;9.208;2023-08-31T02:32:42;98125.81;;;11.38;100.00
7888;BME280;3989;48.810;9.208;2023-08-31T02:35:52;98134.09;;;11.49;100.00
7888;BME280;3989;48.810;9.208;2023-08-31T02:38:25;98127.31;;;11.47;100.00
7888;BME280;3989;48.810;9.208;2023-08-31T02:41:08;98141.06;;;11.50;100.00
7888;BME280;3989;48.810;9.208;2023-08-31T09:48:24;98457.56;;;18.46;49.25
7888;BME280;3989;48.810;9.208;2023-08-31T09:51:05;98404.34;;;17.53;50.43
7888;BME280;3989;48.810;9.208;2023-08-31T09:56:12;98375.59;;;16.94;54.10
7888;BME280;3989;48.810;9.208;2023-08-31T09:58:48;98376.97;;;16.85;52.90
7888;BME280;3989;48.810;9.208;2023-08-31T10:04:13;98631.22;;;18.41;53.16
7888;BME280;3989;48.810;9.208;2023-08-31T10:06:49;98502.22;;;18.02;52.77
7888;BME280;3989;48.810;9.208;2023-08-31T10:17:11;98459.69;;;19.07;48.42
7888;BME280;3989;48.810;9.208;2023-08-31T10:20:17;98634.81;;;20.03;46.66
7888;BME280;3989;48.810;9.208;2023-08-31T10:22:59;98524.53;;;19.42;46.95
7888;BME280;3989;48.810;9.208;2023-08-31T10:28:19;98498.91;;;18.81;46.43
7888;BME280;3989;48.810;9.208;2023-08-31T10:31:15;98418.94;;;18.33;46.51
7888;BME280;3989;48.810;9.208;2023-08-31T10:34:08;98554.16;;;18.85;46.46
7888;BME280;3989;48.810;9.208;2023-08-31T10:36:45;98627.47;;;19.47;47.42
7888;BME280;3989;48.810;9.208;2023-08-31T10:39:22;98477.88;;;18.83;47.46
7888;BME280;3989;48.810;9.208;2023-08-31T10:44:35;98541.09;;;20.35;45.59
7888;BME280;3989;48.810;9.208;2023-08-31T10:47:06;98487.34;;;19.82;45.26
7888;BME280;3989;48.810;9.208;2023-08-31T10:49:34;98545.00;;;20.11;46.16
7888;BME280;3989;48.810;9.208;2023-08-31T10:58:11;98441.88;;;19.51;45.84
7888;BME280;3989;48.810;9.208;2023-08-31T11:00:46;98627.72;;;20.47;46.70
7888;BME280;3989;48.810;9.208;2023-08-31T11:03:22;98626.19;;;20.67;47.26
7888;BME280;3989;48.810;9.208;2023-08-31T11:06:00;98533.50;;;20.04;47.53
7888;BME280;3989;48.810;9.208;2023-08-31T11:08:33;98478.25;;;19.88;47.01
7888;BME280;3989;48.810;9.208;2023-08-31T11:11:19;98395.53;;;19.47;47.20
7888;BME280;3989;48.810;9.208;2023-08-31T11:27:25;98486.84;;;19.68;47.91
7888;BME280;3989;48.810;9.208;2023-08-31T11:29:54;98640.78;;;21.00;48.31
7888;BME280;3989;48.810;9.208;2023-08-31T11:32:23;98509.13;;;20.37;47.84
7888;BME280;3989;48.810;9.208;2023-08-31T11:35:04;98610.38;;;20.81;47.40
7888;BME280;3989;48.810;9.208;2023-08-31T18:27:25;98551.16;;;16.61;100.00
7888;BME280;3989;48.810;9.208;2023-08-31T18:29:51;98572.81;;;16.73;100.00
7888;BME280;3989;48.810;9.208;2023-08-31T18:32:18;98541.28;;;16.49;100.00
7888;BME280;3989;48.810;9.208;2023-08-31T18:34:45;98615.72;;;16.93;100.00
7888;BME280;3989;48.810;9.208;2023-08-31T18:37:14;98588.59;;;16.69;100.00
7888;BME280;3989;48.810;9.208;2023-08-31T18:39:55;98565.88;;;16.59;100.00
7888;BME280;3989;48.810;9.208;2023-08-31T18:42:41;98544.50;;;16.39;100.00
7888;BME280;3989;48.810;9.208;2023-08-31T18:45:21;98610.75;;;16.71;100.00
7888;BME280;3989;48.810;9.208;2023-08-31T18:47:51;98553.69;;;16.32;100.00
7888;BME280;3989;48.810;9.208;2023-08-31T18:50:32;98615.97;;;16.66;100.00
7888;BME280;3989;48.810;9.208;2023-08-31T18:53:11;98551.88;;;16.25;100.00
7888;BME280;3989;48.810;9.208;2023-08-31T18:55:48;98595.03;;;16.44;100.00
7888;BME280;3989;48.810;9.208;2023-08-31T18:58:21;98634.00;;;16.66;100.00
7888;BME280;3989;48.810;9.208;2023-08-31T19:00:55;98572.22;;;16.21;100.00
7888;BME280;3989;48.810;9.208;2023-08-31T19:03:52;98554.66;;;16.12;100.00
7888;BME280;3989;48.810;9.208;2023-08-31T19:06:25;98615.94;;;16.42;100.00
7888;BME280;3989;48.810;9.208;2023-08-31T19:08:53;98642.16;;;16.59;100.00
7888;BME280;3989;48.810;9.208;2023-08-31T19:11:37;98593.03;;;16.33;100.00
7888;BME280;3989;48.810;9.208;2023-08-31T19:14:27;98665.47;;;16.72;100.00
7888;BME280;3989;48.810;9.208;2023-08-31T19:17:07;98582.81;;;16.16;100.00
7888;BME280;3989;48.810;9.208;2023-08-31T19:19:36;98577.53;;;16.03;100.00
7888;BME280;3989;48.810;9.208;2023-08-31T19:22:09;98626.03;;;16.28;100.00
7888;BME280;3989;48.810;9.208;2023-08-31T19:24:56;98630.34;;;16.29;100.00
7888;BME280;3989;48.810;9.208;2023-08-31T19:27:35;98656.28;;;16.48;100.00
7888;BME280;3989;48.810;9.208;2023-08-31T19:30:08;98633.41;;;16.33;100.00
7888;BME280;3989;48.810;9.208;2023-08-31T19:32:35;98657.94;;;16.49;100.00
7888;BME280;3989;48.810;9.208;2023-08-31T19:35:08;98699.59;;;16.78;100.00
7888;BME280;3989;48.810;9.208;2023-08-31T19:38:01;98705.97;;;16.84;100.00
7888;BME280;3989;48.810;9.208;2023-08-31T19:40:28;98714.44;;;16.87;100.00
7888;BME280;3989;48.810;9.208;2023-08-31T19:43:01;98665.53;;;16.65;100.00
7888;BME280;3989;48.810;9.208;2023-08-31T19:45:39;98666.03;;;16.49;100.00
7888;BME280;3989;48.810;9.208;2023-08-31T19:48:18;98569.53;;;15.90;100.00
7888;BME280;3989;48.810;9.208;2023-08-31T19:50:49;98624.91;;;16.11;100.00
7888;BME280;3989;48.810;9.208;2023-08-31T19:53:28;98610.13;;;15.89;100.00
7888;BME280;3989;48.810;9.208;2023-08-31T19:56:08;98617.78;;;15.92;100.00
7888;BME280;3989;48.810;9.208;2023-08-31T19:58:43;98614.09;;;15.86;100.00
7888;BME280;3989;48.810;9.208;2023-08-31T20:01:17;98647.81;;;15.89;100.00
7888;BME280;3989;48.810;9.208;2023-08-31T20:03:52;98621.78;;;15.83;100.00
7888;BME280;3989;48.810;9.208;2023-08-31T20:06:30;98678.72;;;16.11;100.00
7888;BME280;3989;48.810;9.208;2023-08-31T20:09:03;98600.38;;;15.56;100.00
7888;BME280;3989;48.810;9.208;2023-08-31T20:12:00;98695.31;;;16.08;100.00
7888;BME280;3989;48.810;9.208;2023-08-31T20:14:32;98635.28;;;15.69;100.00
7888;BME280;3989;48.810;9.208;2023-08-31T20:17:05;98692.00;;;16.06;100.00
7888;BME280;3989;48.810;9.208;2023-08-31T20:19:53;98641.28;;;15.71;100.00
7888;BME280;3989;48.810;9.208;2023-08-31T20:22:51;98682.75;;;15.95;100.00
7888;BME280;3989;48.810;9.208;2023-08-31T20:25:20;98644.56;;;15.73;100.00
7888;BME280;3989;48.810;9.208;2023-08-31T20:27:53;98585.59;;;15.28;100.00
7888;BME280;3989;48.810;9.208;2023-08-31T20:30:24;98613.66;;;15.38;100.00
7888;BME280;3989;48.810;9.208;2023-08-31T20:33:02;98600.72;;;15.15;100.00
7888;BME280;3989;48.810;9.208;2023-08-31T20:35:31;98661.66;;;15.48;100.00
7888;BME280;3989;48.810;9.208;2023-08-31T20:38:05;98633.34;;;15.32;100.00
7888;BME280;3989;48.810;9.208;2023-08-31T20:40:40;98664.13;;;15.43;100.00
7888;BME280;3989;48.810;9.208;2023-08-31T20:43:15;98608.78;;;15.15;100.00
7888;BME280;3989;48.810;9.208;2023-08-31T20:45:52;98703.75;;;15.73;100.00
7888;BME280;3989;48.810;9.208;2023-08-31T20:48:25;98641.19;;;15.40;100.00
7888;BME280;3989;48.810;9.208;2023-08-31T20:51:03;98666.38;;;15.59;100.00
7888;BME280;3989;48.810;9.208;2023-08-31T20:53:33;98690.50;;;15.79;100.00
7888;BME280;3989;48.810;9.208;2023-08-31T20:56:26;98681.06;;;15.63;100.00
7888;BME280;3989;48.810;9.208;2023-08-31T20:58:56;98658.28;;;15.65;100.00
7888;BME280;3989;48.810;9.208;2023-08-31T21:01:26;98613.31;;;15.28;100.00
7888;BME280;3989;48.810;9.208;2023-08-31T21:04:15;98666.81;;;15.49;100.00
7888;BME280;3989;48.810;9.208;2023-08-31T21:06:57;98599.72;;;15.03;100.00
7888;BME280;3989;48.810;9.208;2023-08-31T21:09:30;98608.81;;;15.09;100.00
7888;BME280;3989;48.810;9.208;2023-08-31T21:12:01;98635.44;;;15.23;100.00
7888;BME280;3989;48.810;9.208;2023-08-31T21:14:40;98655.25;;;15.36;100.00
7888;BME280;3989;48.810;9.208;2023-08-31T21:17:09;98633.34;;;15.25;100.00
7888;BME280;3989;48.810;9.208;2023-08-31T21:19:45;98600.34;;;15.12;100.00
7888;BME280;3989;48.810;9.208;2023-08-31T21:25:31;98620.22;;;15.04;100.00
7888;BME280;3989;48.810;9.208;2023-08-31T21:28:03;98616.13;;;14.89;100.00
7888;BME280;3989;48.810;9.208;2023-08-31T21:30:34;98708.03;;;15.30;100.00
7888;BME280;3989;48.810;9.208;2023-08-31T21:33:03;98697.69;;;15.27;100.00
7888;BME280;3989;48.810;9.208;2023-08-31T21:35:34;98582.69;;;14.45;100.00
7888;BME280;3989;48.810;9.208;2023-08-31T21:38:11;98590.75;;;14.52;100.00
7888;BME280;3989;48.810;9.208;2023-08-31T21:40:45;98663.00;;;14.93;100.00
7888;BME280;3989;48.810;9.208;2023-08-31T21:43:13;98629.34;;;14.77;100.00
7888;BME280;3989;48.810;9.208;2023-08-31T21:45:47;98689.66;;;15.14;100.00
7888;BME280;3989;48.810;9.208;2023-08-31T21:48:22;98682.81;;;15.18;100.00
7888;BME280;3989;48.810;9.208;2023-08-31T21:50:59;98620.44;;;14.83;100.00
7888;BME280;3989;48.810;9.208;2023-08-31T21:53:41;98580.59;;;14.67;100.00
7888;BME280;3989;48.810;9.208;2023-08-31T21:56:14;98554.00;;;14.46;100.00
7888;BME280;3989;48.810;9.208;2023-08-31T21:58:45;98578.75;;;14.61;100.00
7888;BME280;3989;48.810;9.208;2023-08-31T22:01:15;98615.50;;;14.80;100.00
7888;BME280;3989;48.810;9.208;2023-08-31T22:03:47;98581.03;;;14.57;100.00
7888;BME280;3989;48.810;9.208;2023-08-31T22:06:19;98617.16;;;14.81;100.00
7888;BME280;3989;48.810;9.208;2023-08-31T22:08:46;98683.59;;;15.25;100.00
7888;BME280;3989;48.810;9.208;2023-08-31T22:11:13;98579.16;;;14.71;100.00
7888;BME280;3989;48.810;9.208;2023-08-31T22:13:41;98576.47;;;14.71;100.00
7888;BME280;3989;48.810;9.208;2023-08-31T22:16:08;98669.13;;;15.33;100.00
7888;BME280;3989;48.810;9.208;2023-08-31T22:18:35;98601.81;;;15.01;100.00
7888;BME280;3989;48.810;9.208;2023-08-31T22:21:01;98613.81;;;15.05;100.00
7888;BME280;3989;48.810;9.208;2023-08-31T22:23:32;98575.00;;;14.82;100.00
7888;BME280;3989;48.810;9.208;2023-08-31T22:25:59;98657.34;;;15.27;100.00
7888;BME280;3989;48.810;9.208;2023-08-31T22:28:26;98604.28;;;14.96;100.00
7888;BME280;3989;48.810;9.208;2023-08-31T22:30:53;98578.31;;;14.77;100.00
7888;BME280;3989;48.810;9.208;2023-08-31T22:33:20;98556.66;;;14.65;100.00
7888;BME280;3989;48.810;9.208;2023-08-31T22:35:47;98569.66;;;14.75;100.00
7888;BME280;3989;48.810;9.208;2023-08-31T22:38:14;98582.47;;;14.80;100.00
7888;BME280;3989;48.810;9.208;2023-08-31T22:40:42;98661.25;;;15.38;100.00
7888;BME280;3989;48.810;9.208;2023-08-31T22:43:09;98596.88;;;14.98;100.00
7888;BME280;3989;48.810;9.208;2023-08-31T22:45:36;98627.22;;;15.18;100.00
7888;BME280;3989;48.810;9.208;2023-08-31T22:48:03;98657.50;;;15.39;100.00
7888;BME280;3989;48.810;9.208;2023-08-31T22:50:32;98674.28;;;15.41;100.00
7888;BME280;3989;48.810;9.208;2023-08-31T22:52:59;98658.16;;;15.41;100.00
7888;BME280;3989;48.810;9.208;2023-08-31T22:55:26;98567.34;;;14.85;100.00
7888;BME280;3989;48.810;9.208;2023-08-31T22:57:56;98656.69;;;15.38;100.00
7888;BME280;3989;48.810;9.208;2023-08-31T23:00:23;98594.16;;;15.05;100.00
7888;BME280;3989;48.810;9.208;2023-08-31T23:02:49;98565.91;;;14.89;100.00
7888;BME280;3989;48.810;9.208;2023-08-31T23:05:16;98651.94;;;15.40;100.00
7888;BME280;3989;48.810;9.208;2023-08-31T23:07:44;98606.72;;;15.24;100.00
7888;BME280;3989;48.810;9.208;2023-08-31T23:10:13;98645.91;;;15.45;100.00
7888;BME280;3989;48.810;9.208;2023-08-31T23:12:40;98601.72;;;15.28;100.00
7888;BME280;3989;48.810;9.208;2023-08-31T23:15:09;98575.09;;;15.13;100.00
7888;BME280;3989;48.810;9.208;2023-08-31T23:17:38;98622.75;;;15.44;100.00
7888;BME280;3989;48.810;9.208;2023-08-31T23:20:08;98609.53;;;15.36;100.00
7888;BME280;3989;48.810;9.208;2023-08-31T23:22:37;98591.81;;;15.28;100.00
7888;BME280;3989;48.810;9.208;2023-08-31T23:25:07;98597.78;;;15.30;100.00
7888;BME280;3989;48.810;9.208;2023-08-31T23:27:38;98620.53;;;15.34;100.00
7888;BME280;3989;48.810;9.208;2023-08-31T23:30:13;98637.03;;;15.51;100.00
7888;BME280;3989;48.810;9.208;2023-08-31T23:32:57;98632.25;;;15.53;100.00
7888;BME280;3989;48.810;9.208;2023-08-31T23:35:26;98567.25;;;15.18;100.00
7888;BME280;3989;48.810;9.208;2023-08-31T23:37:59;98515.22;;;14.93;100.00
7888;BME280;3989;48.810;9.208;2023-08-31T23:40:30;98539.75;;;15.09;100.00
7888;BME280;3989;48.810;9.208;2023-08-31T23:42:59;98579.09;;;15.42;100.00
7888;BME280;3989;48.810;9.208;2023-08-31T23:45:41;98575.38;;;15.49;100.00
7888;BME280;3989;48.810;9.208;2023-08-31T23:48:13;98567.13;;;15.44;100.00
7888;BME280;3989;48.810;9.208;2023-08-31T23:50:51;98605.34;;;15.91;100.00
7888;BME280;3989;48.810;9.208;2023-08-31T23:53:22;98493.50;;;15.39;100.00
7888;BME280;3989;48.810;9.208;2023-08-31T23:55:53;98476.75;;;15.37;100.00
7888;BME280;3989;48.810;9.208;2023-08-31T23:58:23;98533.06;;;15.69;100.00
